sensor_id;sensor_type;location;lat;lon;timestamp;P1;durP1;ratioP1;P2;durP2;ratioP2
58384;SDS011;44185;47.844;8.966;2023-02-10T00:01:18;28.33;;;12.90;;
58384;SDS011;44185;47.844;8.966;2023-02-10T00:03:44;31.27;;;13.37;;
58384;SDS011;44185;47.844;8.966;2023-02-10T00:06:11;29.92;;;14.18;;
58384;SDS011;44185;47.844;8.966;2023-02-10T00:08:38;28.52;;;14.00;;
58384;SDS011;44185;47.844;8.966;2023-02-10T00:11:04;31.73;;;13.93;;
58384;SDS011;44185;47.844;8.966;2023-02-10T00:13:33;26.35;;;13.40;;
58384;SDS011;44185;47.844;8.966;2023-02-10T00:15:58;25.67;;;11.90;;
58384;SDS011;44185;47.844;8.966;2023-02-10T00:18:24;24.97;;;11.03;;
58384;SDS011;44185;47.844;8.966;2023-02-10T00:20:50;31.80;;;14.97;;
58384;SDS011;44185;47.844;8.966;2023-02-10T00:23:16;26.93;;;12.63;;
58384;SDS011;44185;47.844;8.966;2023-02-10T00:25:41;26.17;;;10.82;;
58384;SDS011;44185;47.844;8.966;2023-02-10T00:28:07;29.83;;;13.00;;
58384;SDS011;44185;47.844;8.966;2023-02-10T00:30:34;27.67;;;12.13;;
58384;SDS011;44185;47.844;8.966;2023-02-10T00:32:59;33.53;;;14.90;;
58384;SDS011;44185;47.844;8.966;2023-02-10T00:35:25;29.77;;;14.33;;
58384;SDS011;44185;47.844;8.966;2023-02-10T00:37:50;32.58;;;14.40;;
58384;SDS011;44185;47.844;8.966;2023-02-10T00:40:16;28.90;;;13.55;;
58384;SDS011;44185;47.844;8.966;2023-02-10T00:42:42;29.75;;;14.35;;
58384;SDS011;44185;47.844;8.966;2023-02-10T00:45:08;30.17;;;14.00;;
58384;SDS011;44185;47.844;8.966;2023-02-10T00:47:35;28.27;;;11.70;;
58384;SDS011;44185;47.844;8.966;2023-02-10T00:50:00;21.43;;;11.67;;
58384;SDS011;44185;47.844;8.966;2023-02-10T00:52:26;35.43;;;15.07;;
58384;SDS011;44185;47.844;8.966;2023-02-10T00:54:52;28.90;;;14.53;;
58384;SDS011;44185;47.844;8.966;2023-02-10T00:57:17;27.10;;;13.47;;
58384;SDS011;44185;47.844;8.966;2023-02-10T00:59:43;30.90;;;14.13;;
58384;SDS011;44185;47.844;8.966;2023-02-10T01:02:08;27.87;;;12.90;;
58384;SDS011;44185;47.844;8.966;2023-02-10T01:04:35;31.40;;;14.70;;
58384;SDS011;44185;47.844;8.966;2023-02-10T01:07:01;32.20;;;15.47;;
58384;SDS011;44185;47.844;8.966;2023-02-10T01:09:27;30.57;;;14.90;;
58384;SDS011;44185;47.844;8.966;2023-02-10T01:11:52;30.07;;;13.83;;
58384;SDS011;44185;47.844;8.966;2023-02-10T01:14:18;27.83;;;13.67;;
58384;SDS011;44185;47.844;8.966;2023-02-10T01:16:43;31.40;;;13.97;;
58384;SDS011;44185;47.844;8.966;2023-02-10T01:19:09;28.03;;;11.97;;
58384;SDS011;44185;47.844;8.966;2023-02-10T01:21:36;25.90;;;12.47;;
58384;SDS011;44185;47.844;8.966;2023-02-10T01:24:02;28.13;;;13.07;;
58384;SDS011;44185;47.844;8.966;2023-02-10T01:26:28;25.37;;;13.00;;
58384;SDS011;44185;47.844;8.966;2023-02-10T01:28:53;28.07;;;13.10;;
58384;SDS011;44185;47.844;8.966;2023-02-10T01:31:20;28.33;;;13.05;;
58384;SDS011;44185;47.844;8.966;2023-02-10T01:33:46;27.23;;;12.43;;
58384;SDS011;44185;47.844;8.966;2023-02-10T01:36:13;24.83;;;11.73;;
58384;SDS011;44185;47.844;8.966;2023-02-10T01:38:41;26.17;;;12.38;;
58384;SDS011;44185;47.844;8.966;2023-02-10T01:41:07;27.80;;;13.17;;
58384;SDS011;44185;47.844;8.966;2023-02-10T01:43:33;26.90;;;12.87;;
58384;SDS011;44185;47.844;8.966;2023-02-10T01:46:18;29.57;;;13.63;;
58384;SDS011;44185;47.844;8.966;2023-02-10T01:48:44;27.27;;;13.55;;
58384;SDS011;44185;47.844;8.966;2023-02-10T01:51:09;28.35;;;13.40;;
58384;SDS011;44185;47.844;8.966;2023-02-10T01:53:36;25.87;;;11.73;;
58384;SDS011;44185;47.844;8.966;2023-02-10T01:56:03;28.30;;;12.20;;
58384;SDS011;44185;47.844;8.966;2023-02-10T01:58:31;24.13;;;12.20;;
58384;SDS011;44185;47.844;8.966;2023-02-10T02:00:58;30.30;;;14.67;;
58384;SDS011;44185;47.844;8.966;2023-02-10T02:03:23;26.52;;;12.98;;
58384;SDS011;44185;47.844;8.966;2023-02-10T02:05:49;30.37;;;13.97;;
58384;SDS011;44185;47.844;8.966;2023-02-10T02:08:15;30.07;;;14.30;;
58384;SDS011;44185;47.844;8.966;2023-02-10T02:10:47;26.50;;;12.93;;
58384;SDS011;44185;47.844;8.966;2023-02-10T02:13:32;28.30;;;12.73;;
58384;SDS011;44185;47.844;8.966;2023-02-10T02:16:08;24.50;;;12.57;;
58384;SDS011;44185;47.844;8.966;2023-02-10T02:18:44;25.07;;;12.67;;
58384;SDS011;44185;47.844;8.966;2023-02-10T02:21:31;27.77;;;12.50;;
58384;SDS011;44185;47.844;8.966;2023-02-10T02:27:17;22.77;;;12.03;;
58384;SDS011;44185;47.844;8.966;2023-02-10T02:30:06;26.97;;;12.30;;
58384;SDS011;44185;47.844;8.966;2023-02-10T02:32:52;28.60;;;13.47;;
58384;SDS011;44185;47.844;8.966;2023-02-10T02:35:23;24.13;;;12.37;;
58384;SDS011;44185;47.844;8.966;2023-02-10T02:37:51;30.47;;;13.57;;
58384;SDS011;44185;47.844;8.966;2023-02-10T02:40:17;33.63;;;14.20;;
58384;SDS011;44185;47.844;8.966;2023-02-10T02:42:43;27.13;;;12.13;;
58384;SDS011;44185;47.844;8.966;2023-02-10T02:45:09;25.53;;;13.03;;
58384;SDS011;44185;47.844;8.966;2023-02-10T02:47:43;29.33;;;12.73;;
58384;SDS011;44185;47.844;8.966;2023-02-10T02:50:22;27.43;;;12.80;;
58384;SDS011;44185;47.844;8.966;2023-02-10T02:52:55;24.27;;;10.83;;
58384;SDS011;44185;47.844;8.966;2023-02-10T02:55:31;24.13;;;12.00;;
58384;SDS011;44185;47.844;8.966;2023-02-10T02:58:08;29.00;;;12.37;;
58384;SDS011;44185;47.844;8.966;2023-02-10T03:00:37;25.40;;;11.97;;
58384;SDS011;44185;47.844;8.966;2023-02-10T03:03:07;26.30;;;12.00;;
58384;SDS011;44185;47.844;8.966;2023-02-10T03:05:33;31.10;;;12.77;;
58384;SDS011;44185;47.844;8.966;2023-02-10T03:07:59;25.13;;;12.03;;
58384;SDS011;44185;47.844;8.966;2023-02-10T03:10:25;28.97;;;12.67;;
58384;SDS011;44185;47.844;8.966;2023-02-10T03:12:51;28.00;;;12.60;;
58384;SDS011;44185;47.844;8.966;2023-02-10T03:15:16;26.20;;;11.30;;
58384;SDS011;44185;47.844;8.966;2023-02-10T03:17:42;28.77;;;11.80;;
58384;SDS011;44185;47.844;8.966;2023-02-10T03:20:10;24.70;;;11.30;;
58384;SDS011;44185;47.844;8.966;2023-02-10T03:22:35;28.50;;;12.93;;
58384;SDS011;44185;47.844;8.966;2023-02-10T03:25:01;28.43;;;12.33;;
58384;SDS011;44185;47.844;8.966;2023-02-10T03:27:27;26.73;;;12.53;;
58384;SDS011;44185;47.844;8.966;2023-02-10T03:29:53;29.40;;;12.77;;
58384;SDS011;44185;47.844;8.966;2023-02-10T03:32:19;31.00;;;14.13;;
58384;SDS011;44185;47.844;8.966;2023-02-10T03:34:45;26.70;;;12.17;;
58384;SDS011;44185;47.844;8.966;2023-02-10T03:37:12;27.03;;;12.03;;
58384;SDS011;44185;47.844;8.966;2023-02-10T03:39:37;25.20;;;12.40;;
58384;SDS011;44185;47.844;8.966;2023-02-10T03:42:03;26.57;;;13.17;;
58384;SDS011;44185;47.844;8.966;2023-02-10T03:44:29;26.70;;;12.30;;
58384;SDS011;44185;47.844;8.966;2023-02-10T03:46:54;29.70;;;14.07;;
58384;SDS011;44185;47.844;8.966;2023-02-10T03:49:20;23.97;;;11.60;;
58384;SDS011;44185;47.844;8.966;2023-02-10T03:51:45;25.80;;;12.53;;
58384;SDS011;44185;47.844;8.966;2023-02-10T03:54:12;23.47;;;12.00;;
58384;SDS011;44185;47.844;8.966;2023-02-10T03:56:38;29.90;;;11.80;;
58384;SDS011;44185;47.844;8.966;2023-02-10T03:59:04;25.27;;;11.83;;
58384;SDS011;44185;47.844;8.966;2023-02-10T04:01:30;24.93;;;12.10;;
58384;SDS011;44185;47.844;8.966;2023-02-10T04:03:56;23.93;;;11.87;;
58384;SDS011;44185;47.844;8.966;2023-02-10T04:06:21;31.37;;;14.80;;
58384;SDS011;44185;47.844;8.966;2023-02-10T04:08:47;24.33;;;11.90;;
58384;SDS011;44185;47.844;8.966;2023-02-10T04:11:14;31.93;;;14.40;;
58384;SDS011;44185;47.844;8.966;2023-02-10T04:13:40;25.50;;;11.67;;
58384;SDS011;44185;47.844;8.966;2023-02-10T04:16:07;23.77;;;11.80;;
58384;SDS011;44185;47.844;8.966;2023-02-10T04:18:34;26.47;;;11.97;;
58384;SDS011;44185;47.844;8.966;2023-02-10T04:21:00;26.13;;;13.13;;
58384;SDS011;44185;47.844;8.966;2023-02-10T04:23:25;27.43;;;13.00;;
58384;SDS011;44185;47.844;8.966;2023-02-10T04:25:51;29.20;;;13.07;;
58384;SDS011;44185;47.844;8.966;2023-02-10T04:28:18;26.07;;;13.57;;
58384;SDS011;44185;47.844;8.966;2023-02-10T04:30:44;28.67;;;13.57;;
58384;SDS011;44185;47.844;8.966;2023-02-10T04:33:09;29.50;;;11.87;;
58384;SDS011;44185;47.844;8.966;2023-02-10T04:35:35;27.77;;;12.67;;
58384;SDS011;44185;47.844;8.966;2023-02-10T04:38:00;27.83;;;12.63;;
58384;SDS011;44185;47.844;8.966;2023-02-10T04:40:26;25.80;;;11.07;;
58384;SDS011;44185;47.844;8.966;2023-02-10T04:42:51;25.60;;;12.80;;
58384;SDS011;44185;47.844;8.966;2023-02-10T04:45:18;25.73;;;12.90;;
58384;SDS011;44185;47.844;8.966;2023-02-10T04:47:45;26.73;;;12.87;;
58384;SDS011;44185;47.844;8.966;2023-02-10T04:50:10;24.00;;;10.83;;
58384;SDS011;44185;47.844;8.966;2023-02-10T04:52:35;29.57;;;12.90;;
58384;SDS011;44185;47.844;8.966;2023-02-10T04:55:01;29.67;;;12.73;;
58384;SDS011;44185;47.844;8.966;2023-02-10T04:57:26;21.87;;;11.87;;
58384;SDS011;44185;47.844;8.966;2023-02-10T04:59:52;25.77;;;12.77;;
58384;SDS011;44185;47.844;8.966;2023-02-10T05:02:19;28.77;;;13.30;;
58384;SDS011;44185;47.844;8.966;2023-02-10T05:04:44;30.83;;;12.73;;
58384;SDS011;44185;47.844;8.966;2023-02-10T05:07:09;30.23;;;13.43;;
58384;SDS011;44185;47.844;8.966;2023-02-10T05:09:35;29.00;;;12.93;;
58384;SDS011;44185;47.844;8.966;2023-02-10T05:12:00;26.50;;;13.17;;
58384;SDS011;44185;47.844;8.966;2023-02-10T05:14:26;27.37;;;11.80;;
58384;SDS011;44185;47.844;8.966;2023-02-10T05:16:51;25.80;;;12.18;;
58384;SDS011;44185;47.844;8.966;2023-02-10T05:19:18;29.37;;;13.10;;
58384;SDS011;44185;47.844;8.966;2023-02-10T05:21:43;26.57;;;11.93;;
58384;SDS011;44185;47.844;8.966;2023-02-10T05:24:09;25.67;;;12.67;;
58384;SDS011;44185;47.844;8.966;2023-02-10T05:26:34;28.43;;;13.53;;
58384;SDS011;44185;47.844;8.966;2023-02-10T05:29:00;29.67;;;12.43;;
58384;SDS011;44185;47.844;8.966;2023-02-10T05:31:25;25.60;;;11.85;;
58384;SDS011;44185;47.844;8.966;2023-02-10T05:33:51;27.27;;;12.13;;
58384;SDS011;44185;47.844;8.966;2023-02-10T05:36:18;26.23;;;13.67;;
58384;SDS011;44185;47.844;8.966;2023-02-10T05:38:43;25.07;;;11.93;;
58384;SDS011;44185;47.844;8.966;2023-02-10T05:41:08;28.57;;;12.03;;
58384;SDS011;44185;47.844;8.966;2023-02-10T05:43:34;25.70;;;12.13;;
58384;SDS011;44185;47.844;8.966;2023-02-10T05:45:59;25.57;;;12.67;;
58384;SDS011;44185;47.844;8.966;2023-02-10T05:48:25;29.93;;;12.93;;
58384;SDS011;44185;47.844;8.966;2023-02-10T05:50:50;26.37;;;12.73;;
58384;SDS011;44185;47.844;8.966;2023-02-10T05:53:17;23.17;;;11.77;;
58384;SDS011;44185;47.844;8.966;2023-02-10T05:55:44;26.13;;;11.87;;
58384;SDS011;44185;47.844;8.966;2023-02-10T05:58:10;23.60;;;11.83;;
58384;SDS011;44185;47.844;8.966;2023-02-10T06:00:35;31.80;;;13.47;;
58384;SDS011;44185;47.844;8.966;2023-02-10T06:03:01;26.07;;;13.23;;
58384;SDS011;44185;47.844;8.966;2023-02-10T06:05:26;25.07;;;12.90;;
58384;SDS011;44185;47.844;8.966;2023-02-10T06:07:52;35.30;;;16.47;;
58384;SDS011;44185;47.844;8.966;2023-02-10T06:10:19;29.63;;;15.70;;
58384;SDS011;44185;47.844;8.966;2023-02-10T06:12:44;29.83;;;13.90;;
58384;SDS011;44185;47.844;8.966;2023-02-10T06:15:10;33.57;;;14.27;;
58384;SDS011;44185;47.844;8.966;2023-02-10T06:17:35;27.13;;;13.93;;
58384;SDS011;44185;47.844;8.966;2023-02-10T06:20:01;22.87;;;13.53;;
58384;SDS011;44185;47.844;8.966;2023-02-10T06:22:26;33.37;;;14.40;;
58384;SDS011;44185;47.844;8.966;2023-02-10T06:24:51;27.80;;;13.57;;
58384;SDS011;44185;47.844;8.966;2023-02-10T06:27:18;30.57;;;14.03;;
58384;SDS011;44185;47.844;8.966;2023-02-10T06:29:44;27.50;;;13.17;;
58384;SDS011;44185;47.844;8.966;2023-02-10T06:32:09;26.83;;;12.70;;
58384;SDS011;44185;47.844;8.966;2023-02-10T06:34:35;30.43;;;14.67;;
58384;SDS011;44185;47.844;8.966;2023-02-10T06:37:00;32.00;;;14.90;;
58384;SDS011;44185;47.844;8.966;2023-02-10T06:39:26;34.57;;;13.87;;
58384;SDS011;44185;47.844;8.966;2023-02-10T06:41:51;25.87;;;13.17;;
58384;SDS011;44185;47.844;8.966;2023-02-10T06:44:18;30.13;;;15.40;;
58384;SDS011;44185;47.844;8.966;2023-02-10T06:46:43;28.80;;;13.13;;
58384;SDS011;44185;47.844;8.966;2023-02-10T06:49:09;36.17;;;14.47;;
58384;SDS011;44185;47.844;8.966;2023-02-10T06:51:34;27.37;;;14.43;;
58384;SDS011;44185;47.844;8.966;2023-02-10T06:54:00;23.77;;;12.30;;
58384;SDS011;44185;47.844;8.966;2023-02-10T06:56:25;27.85;;;12.48;;
58384;SDS011;44185;47.844;8.966;2023-02-10T06:58:51;33.80;;;14.73;;
58384;SDS011;44185;47.844;8.966;2023-02-10T07:01:18;31.30;;;14.03;;
58384;SDS011;44185;47.844;8.966;2023-02-10T07:03:43;36.93;;;14.50;;
58384;SDS011;44185;47.844;8.966;2023-02-10T07:06:09;27.70;;;14.63;;
58384;SDS011;44185;47.844;8.966;2023-02-10T07:08:34;29.37;;;14.90;;
58384;SDS011;44185;47.844;8.966;2023-02-10T07:11:00;27.10;;;12.47;;
58384;SDS011;44185;47.844;8.966;2023-02-10T07:13:26;32.60;;;12.83;;
58384;SDS011;44185;47.844;8.966;2023-02-10T07:15:51;28.17;;;13.47;;
58384;SDS011;44185;47.844;8.966;2023-02-10T07:18:18;29.30;;;13.43;;
58384;SDS011;44185;47.844;8.966;2023-02-10T07:20:44;26.93;;;13.33;;
58384;SDS011;44185;47.844;8.966;2023-02-10T07:23:09;26.70;;;12.83;;
58384;SDS011;44185;47.844;8.966;2023-02-10T07:25:35;28.03;;;13.47;;
58384;SDS011;44185;47.844;8.966;2023-02-10T07:28:00;60.50;;;34.80;;
58384;SDS011;44185;47.844;8.966;2023-02-10T07:30:26;47.07;;;28.93;;
58384;SDS011;44185;47.844;8.966;2023-02-10T07:32:51;32.97;;;17.13;;
58384;SDS011;44185;47.844;8.966;2023-02-10T07:35:18;24.53;;;13.83;;
58384;SDS011;44185;47.844;8.966;2023-02-10T07:37:44;32.93;;;15.70;;
58384;SDS011;44185;47.844;8.966;2023-02-10T07:40:09;31.60;;;14.90;;
58384;SDS011;44185;47.844;8.966;2023-02-10T07:42:35;30.42;;;14.82;;
58384;SDS011;44185;47.844;8.966;2023-02-10T07:45:01;28.70;;;13.07;;
58384;SDS011;44185;47.844;8.966;2023-02-10T07:47:26;28.27;;;14.03;;
58384;SDS011;44185;47.844;8.966;2023-02-10T07:49:52;31.70;;;15.13;;
58384;SDS011;44185;47.844;8.966;2023-02-10T07:52:19;28.80;;;15.73;;
58384;SDS011;44185;47.844;8.966;2023-02-10T07:54:44;40.47;;;16.33;;
58384;SDS011;44185;47.844;8.966;2023-02-10T07:57:10;36.13;;;18.37;;
58384;SDS011;44185;47.844;8.966;2023-02-10T07:59:35;41.65;;;20.98;;
58384;SDS011;44185;47.844;8.966;2023-02-10T08:02:01;38.80;;;20.20;;
58384;SDS011;44185;47.844;8.966;2023-02-10T08:04:26;43.33;;;20.23;;
58384;SDS011;44185;47.844;8.966;2023-02-10T08:06:55;49.67;;;22.17;;
58384;SDS011;44185;47.844;8.966;2023-02-10T08:09:22;42.07;;;21.53;;
58384;SDS011;44185;47.844;8.966;2023-02-10T08:11:47;38.50;;;19.60;;
58384;SDS011;44185;47.844;8.966;2023-02-10T08:14:13;37.80;;;19.42;;
58384;SDS011;44185;47.844;8.966;2023-02-10T08:16:39;38.80;;;18.92;;
58384;SDS011;44185;47.844;8.966;2023-02-10T08:19:04;36.85;;;20.00;;
58384;SDS011;44185;47.844;8.966;2023-02-10T08:21:30;38.00;;;19.52;;
58384;SDS011;44185;47.844;8.966;2023-02-10T08:23:55;36.45;;;17.85;;
58384;SDS011;44185;47.844;8.966;2023-02-10T08:26:22;36.75;;;18.23;;
58384;SDS011;44185;47.844;8.966;2023-02-10T08:28:48;37.17;;;16.42;;
58384;SDS011;44185;47.844;8.966;2023-02-10T08:31:14;38.25;;;17.00;;
58384;SDS011;44185;47.844;8.966;2023-02-10T08:33:40;33.35;;;15.88;;
58384;SDS011;44185;47.844;8.966;2023-02-10T08:36:06;33.38;;;17.27;;
58384;SDS011;44185;47.844;8.966;2023-02-10T08:38:33;34.55;;;18.40;;
58384;SDS011;44185;47.844;8.966;2023-02-10T08:40:58;38.17;;;17.33;;
58384;SDS011;44185;47.844;8.966;2023-02-10T08:43:26;30.63;;;15.63;;
58384;SDS011;44185;47.844;8.966;2023-02-10T08:45:54;45.78;;;18.83;;
58384;SDS011;44185;47.844;8.966;2023-02-10T08:48:19;38.03;;;18.45;;
58384;SDS011;44185;47.844;8.966;2023-02-10T08:50:45;38.30;;;17.00;;
58384;SDS011;44185;47.844;8.966;2023-02-10T08:53:10;41.15;;;18.27;;
58384;SDS011;44185;47.844;8.966;2023-02-10T08:55:36;41.20;;;18.88;;
58384;SDS011;44185;47.844;8.966;2023-02-10T08:58:03;37.20;;;17.05;;
58384;SDS011;44185;47.844;8.966;2023-02-10T09:00:30;39.75;;;18.40;;
58384;SDS011;44185;47.844;8.966;2023-02-10T09:02:55;36.92;;;18.50;;
58384;SDS011;44185;47.844;8.966;2023-02-10T09:05:21;38.85;;;19.92;;
58384;SDS011;44185;47.844;8.966;2023-02-10T09:07:46;39.72;;;19.42;;
58384;SDS011;44185;47.844;8.966;2023-02-10T09:10:13;44.85;;;22.98;;
58384;SDS011;44185;47.844;8.966;2023-02-10T09:12:39;50.35;;;23.20;;
58384;SDS011;44185;47.844;8.966;2023-02-10T09:15:06;55.30;;;26.52;;
58384;SDS011;44185;47.844;8.966;2023-02-10T09:17:34;46.42;;;25.75;;
58384;SDS011;44185;47.844;8.966;2023-02-10T09:19:59;47.97;;;21.42;;
58384;SDS011;44185;47.844;8.966;2023-02-10T09:22:25;45.60;;;23.13;;
58384;SDS011;44185;47.844;8.966;2023-02-10T09:24:50;45.83;;;22.38;;
58384;SDS011;44185;47.844;8.966;2023-02-10T09:27:16;45.42;;;22.70;;
58384;SDS011;44185;47.844;8.966;2023-02-10T09:29:41;38.55;;;20.02;;
58384;SDS011;44185;47.844;8.966;2023-02-10T09:32:07;38.83;;;20.63;;
58384;SDS011;44185;47.844;8.966;2023-02-10T09:34:34;41.10;;;20.58;;
58384;SDS011;44185;47.844;8.966;2023-02-10T09:36:59;40.83;;;21.00;;
58384;SDS011;44185;47.844;8.966;2023-02-10T09:39:25;46.53;;;21.98;;
58384;SDS011;44185;47.844;8.966;2023-02-10T09:41:52;50.25;;;23.00;;
58384;SDS011;44185;47.844;8.966;2023-02-10T09:44:23;43.13;;;19.70;;
58384;SDS011;44185;47.844;8.966;2023-02-10T09:46:54;38.25;;;19.77;;
58384;SDS011;44185;47.844;8.966;2023-02-10T09:49:47;45.58;;;20.17;;
58384;SDS011;44185;47.844;8.966;2023-02-10T09:52:27;33.72;;;17.40;;
58384;SDS011;44185;47.844;8.966;2023-02-10T09:54:59;40.67;;;19.48;;
58384;SDS011;44185;47.844;8.966;2023-02-10T09:57:27;35.55;;;16.05;;
58384;SDS011;44185;47.844;8.966;2023-02-10T09:59:59;32.65;;;17.05;;
58384;SDS011;44185;47.844;8.966;2023-02-10T10:02:27;30.90;;;16.05;;
58384;SDS011;44185;47.844;8.966;2023-02-10T10:07:26;38.63;;;18.75;;
58384;SDS011;44185;47.844;8.966;2023-02-10T10:09:58;20.02;;;10.90;;
58384;SDS011;44185;47.844;8.966;2023-02-10T10:12:27;43.47;;;19.88;;
58384;SDS011;44185;47.844;8.966;2023-02-10T10:14:53;31.38;;;14.50;;
58384;SDS011;44185;47.844;8.966;2023-02-10T10:17:25;34.45;;;16.80;;
58384;SDS011;44185;47.844;8.966;2023-02-10T10:20:25;28.92;;;14.75;;
58384;SDS011;44185;47.844;8.966;2023-02-10T10:22:58;37.83;;;18.45;;
58384;SDS011;44185;47.844;8.966;2023-02-10T10:25:36;33.60;;;17.35;;
58384;SDS011;44185;47.844;8.966;2023-02-10T10:30:51;33.58;;;15.32;;
58384;SDS011;44185;47.844;8.966;2023-02-10T10:33:22;30.08;;;14.57;;
58384;SDS011;44185;47.844;8.966;2023-02-10T10:35:50;33.47;;;15.65;;
58384;SDS011;44185;47.844;8.966;2023-02-10T10:38:20;29.23;;;14.65;;
58384;SDS011;44185;47.844;8.966;2023-02-10T10:40:46;33.20;;;16.45;;
58384;SDS011;44185;47.844;8.966;2023-02-10T10:43:17;30.73;;;15.95;;
58384;SDS011;44185;47.844;8.966;2023-02-10T10:45:48;30.77;;;11.98;;
58384;SDS011;44185;47.844;8.966;2023-02-10T10:48:16;35.67;;;16.65;;
58384;SDS011;44185;47.844;8.966;2023-02-10T10:50:44;34.72;;;16.40;;
58384;SDS011;44185;47.844;8.966;2023-02-10T10:53:13;33.72;;;17.15;;
58384;SDS011;44185;47.844;8.966;2023-02-10T10:55:41;33.20;;;15.60;;
58384;SDS011;44185;47.844;8.966;2023-02-10T10:58:14;32.63;;;15.65;;
58384;SDS011;44185;47.844;8.966;2023-02-10T11:00:48;33.90;;;16.55;;
58384;SDS011;44185;47.844;8.966;2023-02-10T11:03:15;34.67;;;17.20;;
58384;SDS011;44185;47.844;8.966;2023-02-10T11:05:41;33.97;;;16.02;;
58384;SDS011;44185;47.844;8.966;2023-02-10T11:08:21;41.17;;;15.13;;
58384;SDS011;44185;47.844;8.966;2023-02-10T11:10:49;34.75;;;18.00;;
58384;SDS011;44185;47.844;8.966;2023-02-10T11:13:18;35.20;;;16.42;;
58384;SDS011;44185;47.844;8.966;2023-02-10T11:15:44;35.77;;;16.73;;
58384;SDS011;44185;47.844;8.966;2023-02-10T11:18:15;34.92;;;16.35;;
58384;SDS011;44185;47.844;8.966;2023-02-10T11:20:51;31.90;;;15.07;;
58384;SDS011;44185;47.844;8.966;2023-02-10T11:23:18;34.63;;;16.48;;
58384;SDS011;44185;47.844;8.966;2023-02-10T11:25:46;32.67;;;15.73;;
58384;SDS011;44185;47.844;8.966;2023-02-10T11:28:21;31.05;;;16.50;;
58384;SDS011;44185;47.844;8.966;2023-02-10T11:30:53;32.08;;;16.42;;
58384;SDS011;44185;47.844;8.966;2023-02-10T11:33:23;30.65;;;14.27;;
58384;SDS011;44185;47.844;8.966;2023-02-10T11:35:51;28.00;;;15.13;;
58384;SDS011;44185;47.844;8.966;2023-02-10T11:38:22;32.92;;;16.35;;
58384;SDS011;44185;47.844;8.966;2023-02-10T11:40:51;30.02;;;14.88;;
58384;SDS011;44185;47.844;8.966;2023-02-10T11:43:18;36.88;;;16.85;;
58384;SDS011;44185;47.844;8.966;2023-02-10T11:45:52;32.55;;;15.90;;
58384;SDS011;44185;47.844;8.966;2023-02-10T11:48:19;31.20;;;14.60;;
58384;SDS011;44185;47.844;8.966;2023-02-10T11:50:46;30.75;;;13.80;;
58384;SDS011;44185;47.844;8.966;2023-02-10T11:55:45;30.95;;;15.02;;
58384;SDS011;44185;47.844;8.966;2023-02-10T11:58:25;32.88;;;16.67;;
58384;SDS011;44185;47.844;8.966;2023-02-10T12:01:07;27.50;;;14.15;;
58384;SDS011;44185;47.844;8.966;2023-02-10T12:03:37;31.20;;;14.98;;
58384;SDS011;44185;47.844;8.966;2023-02-10T12:06:13;25.77;;;12.82;;
58384;SDS011;44185;47.844;8.966;2023-02-10T12:08:46;29.20;;;13.77;;
58384;SDS011;44185;47.844;8.966;2023-02-10T12:11:23;28.92;;;14.65;;
58384;SDS011;44185;47.844;8.966;2023-02-10T12:14:00;18.48;;;10.00;;
58384;SDS011;44185;47.844;8.966;2023-02-10T12:16:34;27.02;;;13.45;;
58384;SDS011;44185;47.844;8.966;2023-02-10T12:19:08;24.42;;;11.93;;
58384;SDS011;44185;47.844;8.966;2023-02-10T12:21:53;19.85;;;10.00;;
58384;SDS011;44185;47.844;8.966;2023-02-10T12:24:32;23.98;;;12.52;;
58384;SDS011;44185;47.844;8.966;2023-02-10T12:27:16;29.48;;;13.60;;
58384;SDS011;44185;47.844;8.966;2023-02-10T12:29:51;28.02;;;12.00;;
58384;SDS011;44185;47.844;8.966;2023-02-10T12:32:27;23.48;;;12.07;;
58384;SDS011;44185;47.844;8.966;2023-02-10T12:35:05;27.52;;;12.95;;
58384;SDS011;44185;47.844;8.966;2023-02-10T12:37:50;26.50;;;13.70;;
58384;SDS011;44185;47.844;8.966;2023-02-10T12:40:28;29.45;;;13.90;;
58384;SDS011;44185;47.844;8.966;2023-02-10T12:43:05;29.27;;;13.75;;
58384;SDS011;44185;47.844;8.966;2023-02-10T12:45:41;31.02;;;15.38;;
58384;SDS011;44185;47.844;8.966;2023-02-10T12:48:16;26.27;;;14.20;;
58384;SDS011;44185;47.844;8.966;2023-02-10T12:50:58;31.58;;;16.33;;
58384;SDS011;44185;47.844;8.966;2023-02-10T12:53:41;32.80;;;15.90;;
58384;SDS011;44185;47.844;8.966;2023-02-10T12:56:11;30.13;;;15.43;;
58384;SDS011;44185;47.844;8.966;2023-02-10T12:58:45;22.50;;;11.80;;
58384;SDS011;44185;47.844;8.966;2023-02-10T13:01:16;26.47;;;12.67;;
58384;SDS011;44185;47.844;8.966;2023-02-10T13:03:47;28.58;;;14.85;;
58384;SDS011;44185;47.844;8.966;2023-02-10T13:06:20;24.52;;;13.57;;
58384;SDS011;44185;47.844;8.966;2023-02-10T13:08:53;28.25;;;13.75;;
58384;SDS011;44185;47.844;8.966;2023-02-10T13:11:27;25.42;;;12.18;;
58384;SDS011;44185;47.844;8.966;2023-02-10T13:13:59;25.63;;;13.30;;
58384;SDS011;44185;47.844;8.966;2023-02-10T13:16:30;21.55;;;11.15;;
58384;SDS011;44185;47.844;8.966;2023-02-10T13:18:59;25.52;;;12.98;;
58384;SDS011;44185;47.844;8.966;2023-02-10T13:21:31;25.35;;;12.90;;
58384;SDS011;44185;47.844;8.966;2023-02-10T13:24:05;28.75;;;13.35;;
58384;SDS011;44185;47.844;8.966;2023-02-10T13:26:43;27.98;;;13.93;;
58384;SDS011;44185;47.844;8.966;2023-02-10T13:29:16;27.57;;;13.90;;
58384;SDS011;44185;47.844;8.966;2023-02-10T13:31:57;25.65;;;12.80;;
58384;SDS011;44185;47.844;8.966;2023-02-10T13:34:34;28.05;;;13.75;;
58384;SDS011;44185;47.844;8.966;2023-02-10T13:39:31;23.02;;;12.43;;
58384;SDS011;44185;47.844;8.966;2023-02-10T13:42:06;24.65;;;13.27;;
58384;SDS011;44185;47.844;8.966;2023-02-10T13:44:41;27.33;;;12.32;;
58384;SDS011;44185;47.844;8.966;2023-02-10T13:47:13;26.63;;;13.63;;
58384;SDS011;44185;47.844;8.966;2023-02-10T13:49:49;24.05;;;10.77;;
58384;SDS011;44185;47.844;8.966;2023-02-10T13:52:18;26.23;;;12.40;;
58384;SDS011;44185;47.844;8.966;2023-02-10T13:54:52;27.83;;;13.38;;
58384;SDS011;44185;47.844;8.966;2023-02-10T13:57:24;24.95;;;12.40;;
58384;SDS011;44185;47.844;8.966;2023-02-10T13:59:51;23.83;;;12.40;;
58384;SDS011;44185;47.844;8.966;2023-02-10T14:02:19;25.45;;;12.63;;
58384;SDS011;44185;47.844;8.966;2023-02-10T14:04:46;24.02;;;11.57;;
58384;SDS011;44185;47.844;8.966;2023-02-10T14:07:14;26.67;;;12.82;;
58384;SDS011;44185;47.844;8.966;2023-02-10T14:09:41;26.10;;;13.70;;
58384;SDS011;44185;47.844;8.966;2023-02-10T14:12:22;28.98;;;13.02;;
58384;SDS011;44185;47.844;8.966;2023-02-10T14:14:49;24.65;;;11.50;;
58384;SDS011;44185;47.844;8.966;2023-02-10T14:17:17;21.08;;;9.85;;
58384;SDS011;44185;47.844;8.966;2023-02-10T14:19:47;27.73;;;12.02;;
58384;SDS011;44185;47.844;8.966;2023-02-10T14:22:20;24.63;;;12.45;;
58384;SDS011;44185;47.844;8.966;2023-02-10T14:24:48;25.33;;;12.85;;
58384;SDS011;44185;47.844;8.966;2023-02-10T14:27:14;27.80;;;13.05;;
58384;SDS011;44185;47.844;8.966;2023-02-10T14:29:44;24.02;;;12.38;;
58384;SDS011;44185;47.844;8.966;2023-02-10T14:32:13;24.25;;;12.50;;
58384;SDS011;44185;47.844;8.966;2023-02-10T14:34:41;12.65;;;6.68;;
58384;SDS011;44185;47.844;8.966;2023-02-10T14:37:19;24.38;;;11.95;;
58384;SDS011;44185;47.844;8.966;2023-02-10T14:39:49;26.55;;;12.10;;
58384;SDS011;44185;47.844;8.966;2023-02-10T14:42:15;26.08;;;12.20;;